createdAt,value
2022-08-22T00:02:52.599Z,99849.25
2022-08-22T00:03:01.247Z,99848.38
2022-08-22T00:03:11.354Z,99852.16
2022-08-22T00:06:01.430Z,99868.47
2022-08-22T00:08:39.771Z,99865.97
2022-08-22T00:11:46.302Z,99875.63
2022-08-22T00:14:17.959Z,99871.41
2022-08-22T00:16:45.426Z,99885.50
2022-08-22T00:19:27.538Z,99869.50
2022-08-22T00:22:21.685Z,99871.31
2022-08-22T00:25:24.841Z,99854.38
2022-08-22T00:28:19.345Z,99873.78
2022-08-22T00:31:20.112Z,99875.66
2022-08-22T00:33:53.689Z,99891.09
2022-08-22T00:36:58.991Z,99881.56
2022-08-22T00:40:04.401Z,99892.25
2022-08-22T00:42:53.610Z,99889.72
2022-08-22T00:45:39.310Z,99899.16
2022-08-22T00:48:28.048Z,99879.91
2022-08-22T00:51:32.233Z,99895.03
2022-08-22T00:54:24.440Z,99901.06
2022-08-22T00:57:19.880Z,99899.41
2022-08-22T01:00:14.235Z,99899.63
2022-08-22T01:02:50.419Z,99898.88
2022-08-22T01:05:30.798Z,99898.97
2022-08-22T01:08:15.797Z,99899.03
2022-08-22T01:11:05.525Z,99900.19
2022-08-22T01:14:00.956Z,99908.16
2022-08-22T01:16:50.006Z,99915.41
2022-08-22T01:19:26.201Z,99913.84
2022-08-22T01:22:14.494Z,99907.69
2022-08-22T01:25:18.478Z,99905.19
2022-08-22T01:28:22.846Z,99894.69
2022-08-22T01:31:27.320Z,99894.88
2022-08-22T01:34:13.259Z,99894.75
2022-08-22T01:37:01.970Z,99885.13
2022-08-22T01:39:40.887Z,99884.44
2022-08-22T01:42:45.114Z,99879.63
2022-08-22T01:45:18.441Z,99878.22
2022-08-22T01:48:39.967Z,99870.00
2022-08-22T01:51:25.251Z,99867.75
2022-08-22T01:54:20.884Z,99850.81
2022-08-22T01:56:49.083Z,99858.97
2022-08-22T01:59:53.230Z,99859.59
2022-08-22T02:02:41.708Z,99847.31
2022-08-22T02:05:18.691Z,99849.28
2022-08-22T02:08:03.805Z,99852.09
2022-08-22T02:10:49.108Z,99867.31
2022-08-22T02:13:29.202Z,99863.34
2022-08-22T02:16:25.446Z,99860.63
2022-08-22T02:19:14.261Z,99870.66
2022-08-22T02:21:55.397Z,99864.72
2022-08-22T02:24:38.508Z,99854.69
2022-08-22T02:27:11.642Z,99869.81
2022-08-22T02:29:49.004Z,99873.53
2022-08-22T02:32:33.680Z,99871.22
2022-08-22T02:35:07.018Z,99879.00
2022-08-22T02:37:40.007Z,99881.56
2022-08-22T02:40:13.658Z,99879.69
2022-08-22T02:42:52.350Z,99882.28
2022-08-22T02:45:35.895Z,99885.81
2022-08-22T02:48:15.618Z,99883.97
2022-08-22T02:50:51.969Z,99882.09
2022-08-22T02:53:41.349Z,99883.75
2022-08-22T02:56:28.486Z,99876.84
2022-08-22T02:59:32.174Z,99887.06
2022-08-22T03:02:39.740Z,99889.50
2022-08-22T03:05:36.283Z,99894.81
2022-08-22T03:08:27.529Z,99900.88
2022-08-22T03:11:21.916Z,99895.63
2022-08-22T03:14:26.454Z,99902.66
2022-08-22T03:17:06.186Z,99889.44
2022-08-22T03:19:56.498Z,99885.06
2022-08-22T03:22:23.746Z,99898.09
2022-08-22T03:25:04.022Z,99897.97
2022-08-22T03:28:00.845Z,99905.94
2022-08-22T03:30:43.972Z,99892.69
2022-08-22T03:33:30.338Z,99899.44
2022-08-22T03:36:06.984Z,99908.97
2022-08-22T03:38:34.105Z,99903.44
2022-08-22T03:41:19.443Z,99884.03
2022-08-22T03:44:14.958Z,99902.06
2022-08-22T03:47:00.313Z,99892.44
2022-08-22T03:50:15.364Z,99898.44
2022-08-22T03:53:06.915Z,99896.16
2022-08-22T03:56:01.271Z,99895.69
2022-08-22T03:59:03.167Z,99887.72
2022-08-22T04:01:40.444Z,99891.81
2022-08-22T04:04:31.868Z,99896.03
2022-08-22T04:07:35.177Z,99893.94
2022-08-22T04:10:25.413Z,99893.31
2022-08-22T04:13:30.144Z,99906.06
2022-08-22T04:16:03.334Z,99903.84
2022-08-22T04:19:03.843Z,99898.78
2022-08-22T04:21:53.429Z,99907.19
2022-08-22T04:25:01.124Z,99904.66
2022-08-22T04:27:41.315Z,99902.81
2022-08-22T04:30:31.523Z,99900.13
2022-08-22T04:33:17.915Z,99923.81
2022-08-22T04:35:58.106Z,99912.50
2022-08-22T04:38:38.179Z,99908.72
2022-08-22T04:41:22.195Z,99918.19
2022-08-22T04:43:56.834Z,99902.94
2022-08-22T04:46:41.658Z,99915.09
2022-08-22T04:49:48.034Z,99920.75
2022-08-22T04:52:35.295Z,99886.41
2022-08-22T04:55:27.218Z,99896.78
2022-08-22T04:58:02.866Z,99886.38
2022-08-22T05:01:00.584Z,99894.28
2022-08-22T05:03:30.323Z,99890.56
2022-08-22T05:06:01.796Z,99886.13
2022-08-22T05:08:34.326Z,99877.50
2022-08-22T05:11:03.107Z,99881.66
2022-08-22T05:13:48.542Z,99873.81
2022-08-22T05:16:20.522Z,99873.06
2022-08-22T05:18:57.438Z,99882.41
2022-08-22T05:21:34.336Z,99869.84
2022-08-22T05:24:12.677Z,99864.16
2022-08-22T05:26:47.822Z,99878.22
2022-08-22T05:29:20.557Z,99880.72
2022-08-22T05:31:56.533Z,99875.59
2022-08-22T05:34:28.543Z,99882.94
2022-08-22T05:37:20.842Z,99880.50
2022-08-22T05:39:54.135Z,99894.56
2022-08-22T05:42:30.286Z,99912.59
2022-08-22T05:44:57.602Z,99909.16
2022-08-22T05:47:34.827Z,99884.94
2022-08-22T05:50:02.557Z,99892.88
2022-08-22T05:52:36.736Z,99892.94
2022-08-22T05:55:21.826Z,99869.06
2022-08-22T05:57:55.685Z,99890.66
2022-08-22T06:00:27.296Z,99895.63
2022-08-22T06:03:17.661Z,99889.94
2022-08-22T06:05:50.100Z,99905.53
2022-08-22T06:08:31.630Z,99896.84
2022-08-22T06:11:07.615Z,99885.13
2022-08-22T06:13:41.336Z,99899.97
2022-08-22T06:16:30.818Z,99897.16
2022-08-22T06:18:58.168Z,99905.66
2022-08-22T06:21:38.607Z,99906.38
2022-08-22T06:24:10.115Z,99897.88
2022-08-22T06:26:46.088Z,99913.47
2022-08-22T06:29:30.750Z,99917.44
2022-08-22T06:32:01.015Z,99915.13
2022-08-22T06:34:36.928Z,99911.28
2022-08-22T06:37:08.557Z,99909.03
2022-08-22T06:39:40.739Z,99921.03
2022-08-22T06:42:16.895Z,99923.06
2022-08-22T06:44:47.074Z,99922.94
2022-08-22T06:47:20.998Z,99926.09
2022-08-22T06:49:51.074Z,99911.97
2022-08-22T06:52:23.754Z,99925.63
2022-08-22T06:54:59.330Z,99918.88
2022-08-22T06:57:29.228Z,99918.06
2022-08-22T06:59:58.279Z,99917.97
2022-08-22T07:02:59.301Z,99905.91
2022-08-22T07:05:29.537Z,99902.69
2022-08-22T07:07:57.480Z,99903.63
2022-08-22T07:10:25.634Z,99904.72
2022-08-22T07:12:56.791Z,99910.38
2022-08-22T07:15:36.775Z,99912.53
2022-08-22T07:18:26.125Z,99923.34
2022-08-22T07:20:57.353Z,99920.78
2022-08-22T07:23:31.881Z,99922.16
2022-08-22T07:26:05.210Z,99922.50
2022-08-22T07:28:58.523Z,99924.84
2022-08-22T07:31:32.141Z,99923.84
2022-08-22T07:34:25.918Z,99917.50
2022-08-22T07:37:01.876Z,99915.34
2022-08-22T07:39:35.118Z,99912.63
2022-08-22T07:42:05.663Z,99917.91
2022-08-22T07:45:14.358Z,99914.72
2022-08-22T07:48:07.435Z,99913.22
2022-08-22T07:51:12.760Z,99908.84
2022-08-22T07:54:00.929Z,99904.91
2022-08-22T07:56:33.746Z,99917.00
2022-08-22T07:59:17.345Z,99906.13
2022-08-22T08:01:52.132Z,99917.06
2022-08-22T08:04:34.881Z,99914.56
2022-08-22T08:07:08.484Z,99913.47
2022-08-22T08:09:42.930Z,99918.91
2022-08-22T08:12:12.095Z,99919.22
2022-08-22T08:14:42.188Z,99917.81
2022-08-22T08:17:17.744Z,99920.13
2022-08-22T08:19:45.610Z,99931.75
2022-08-22T08:22:20.259Z,99918.66
2022-08-22T08:24:49.534Z,99920.63
2022-08-22T08:27:45.944Z,99911.16
2022-08-22T08:30:25.953Z,99913.47
2022-08-22T08:32:57.452Z,99914.59
2022-08-22T08:36:02.599Z,99921.22
2022-08-22T08:38:42.588Z,99912.09
2022-08-22T08:41:28.572Z,99920.53
2022-08-22T08:44:10.431Z,99911.06
2022-08-22T08:46:38.551Z,99920.75
2022-08-22T08:49:14.970Z,99915.53
2022-08-22T08:51:52.968Z,99930.84
2022-08-22T08:54:27.083Z,99923.84
2022-08-22T08:57:00.232Z,99920.16
2022-08-22T08:59:48.707Z,99922.50
2022-08-22T09:02:45.913Z,99929.38
2022-08-22T09:05:51.085Z,99929.00
2022-08-22T09:08:36.938Z,99929.53
2022-08-22T09:11:49.069Z,99931.03
2022-08-22T09:14:54.297Z,99927.34
2022-08-22T09:17:43.012Z,99895.22
2022-08-22T09:20:25.430Z,99933.91
2022-08-22T09:23:17.817Z,99932.25
2022-08-22T09:26:12.682Z,99907.50
2022-08-22T09:28:51.937Z,99911.38
2022-08-22T09:31:47.480Z,99933.16
2022-08-22T09:34:27.903Z,99928.56
2022-08-22T09:37:29.387Z,99927.88
2022-08-22T09:40:16.976Z,99934.25
2022-08-22T09:42:46.499Z,99938.22
2022-08-22T09:45:33.861Z,99936.06
2022-08-22T09:48:22.712Z,99913.63
2022-08-22T09:51:04.670Z,99924.59
2022-08-22T09:53:54.811Z,99918.50
2022-08-22T09:56:50.668Z,99911.75
2022-08-22T09:59:41.286Z,99918.88
2022-08-22T10:02:43.305Z,99900.22
2022-08-22T10:05:40.675Z,99920.84
2022-08-22T10:08:58.138Z,99909.84
2022-08-22T10:11:30.385Z,99905.16
2022-08-22T10:14:22.202Z,99905.72
2022-08-22T10:17:21.856Z,99919.47
2022-08-22T10:20:12.368Z,99912.34
2022-08-22T10:22:53.316Z,99911.25
2022-08-22T10:25:41.656Z,99911.28
2022-08-22T10:28:14.377Z,99917.59
2022-08-22T10:30:47.520Z,99917.09
2022-08-22T10:33:35.916Z,99895.66
2022-08-22T10:36:47.999Z,99913.13
2022-08-22T10:39:28.120Z,99912.09
2022-08-22T10:42:19.555Z,99908.84
2022-08-22T10:45:09.625Z,99906.47
2022-08-22T10:48:08.798Z,99905.22
2022-08-22T10:50:52.177Z,99889.00
2022-08-22T10:53:34.929Z,99908.50
2022-08-22T10:56:37.552Z,99912.00
2022-08-22T10:59:35.980Z,99908.00
2022-08-22T11:02:28.034Z,99890.88
2022-08-22T11:05:14.048Z,99896.72
2022-08-22T11:08:10.057Z,99896.50
2022-08-22T11:11:09.126Z,99901.53
2022-08-22T11:13:43.282Z,99906.53
2022-08-22T11:16:41.949Z,99905.44
2022-08-22T11:19:40.057Z,99902.47
2022-08-22T11:22:33.888Z,99892.06
2022-08-22T11:25:23.780Z,99878.72
2022-08-22T11:28:15.628Z,99893.41
2022-08-22T11:31:07.720Z,99884.16
2022-08-22T11:33:59.120Z,99892.97
2022-08-22T11:36:35.619Z,99886.53
2022-08-22T11:39:34.565Z,99895.78
2022-08-22T11:42:12.572Z,99883.97
2022-08-22T11:44:51.508Z,99885.41
2022-08-22T11:47:26.556Z,99871.00
2022-08-22T11:49:58.316Z,99878.69
2022-08-22T11:52:43.529Z,99885.38
2022-08-22T11:55:32.551Z,99875.06
2022-08-22T11:58:09.972Z,99871.06
2022-08-22T12:00:46.047Z,99876.72
2022-08-22T12:03:23.241Z,99868.59
2022-08-22T12:05:57.077Z,99876.84
2022-08-22T12:08:31.174Z,99882.59
2022-08-22T12:11:13.879Z,99878.19
2022-08-22T12:14:02.452Z,99874.50
2022-08-22T12:16:55.624Z,99878.78
2022-08-22T12:19:35.712Z,99880.47
2022-08-22T12:22:34.764Z,99871.94
2022-08-22T12:25:17.454Z,99884.66
2022-08-22T12:28:12.572Z,99882.09
2022-08-22T12:30:54.711Z,99871.53
2022-08-22T12:33:37.399Z,99873.13
2022-08-22T12:36:18.337Z,99880.53
2022-08-22T12:39:12.266Z,99874.13
2022-08-22T12:42:01.007Z,99884.81
2022-08-22T12:44:34.518Z,99885.69
2022-08-22T12:47:04.660Z,99877.41
2022-08-22T12:49:57.109Z,99882.81
2022-08-22T12:52:44.306Z,99885.28
2022-08-22T12:55:17.443Z,99891.69
2022-08-22T12:58:34.541Z,99883.19
2022-08-22T13:01:07.455Z,99878.63
2022-08-22T13:03:47.403Z,99881.19
2022-08-22T13:06:36.194Z,99880.31
2022-08-22T13:09:30.805Z,99879.84
2022-08-22T13:12:31.859Z,99886.81
2022-08-22T13:15:16.178Z,99880.53
2022-08-22T13:17:47.667Z,99873.09
2022-08-22T13:20:26.608Z,99878.81
2022-08-22T13:22:55.590Z,99871.28
2022-08-22T13:25:26.880Z,99860.91
2022-08-22T13:27:59.158Z,99878.84
2022-08-22T13:30:32.595Z,99872.16
2022-08-22T13:33:22.657Z,99873.31
2022-08-22T13:35:53.548Z,99874.88
2022-08-22T13:38:28.416Z,99878.72
2022-08-22T13:40:58.176Z,99865.91
2022-08-22T13:43:59.980Z,99874.72
2022-08-22T13:46:35.430Z,99869.75
2022-08-22T13:49:08.090Z,99852.38
2022-08-22T13:51:47.661Z,99870.16
2022-08-22T13:54:21.338Z,99869.59
2022-08-22T13:57:09.167Z,99863.63
2022-08-22T13:59:52.426Z,99866.31
2022-08-22T14:02:34.399Z,99874.84
2022-08-22T14:05:08.955Z,99860.56
2022-08-22T14:07:53.603Z,99860.56
2022-08-22T14:10:29.711Z,99868.09
2022-08-22T14:12:56.791Z,99872.78
2022-08-22T14:15:32.223Z,99867.72
2022-08-22T14:18:30.053Z,99875.72
2022-08-22T14:21:33.414Z,99866.72
2022-08-22T14:24:19.408Z,99875.78
2022-08-22T14:27:06.733Z,99870.31
2022-08-22T14:29:53.485Z,99878.84
2022-08-22T14:32:25.851Z,99874.50
2022-08-22T14:35:21.419Z,99862.56
2022-08-22T14:37:54.364Z,99860.94
2022-08-22T14:40:29.086Z,99875.81
2022-08-22T14:43:22.571Z,99872.66
2022-08-22T14:46:02.010Z,99873.03
2022-08-22T14:48:43.622Z,99882.28
2022-08-22T14:51:23.169Z,99859.03
2022-08-22T14:53:51.675Z,99869.81
2022-08-22T14:56:23.558Z,99861.09
2022-08-22T14:58:59.656Z,99855.25
2022-08-22T15:01:32.897Z,99871.31
2022-08-22T15:04:19.273Z,99871.56
2022-08-22T15:06:57.919Z,99864.94
2022-08-22T15:09:28.623Z,99871.22
2022-08-22T15:11:58.278Z,99870.72
2022-08-22T15:14:45.706Z,99864.72
2022-08-22T15:17:45.081Z,99862.16
2022-08-22T15:20:36.193Z,99867.81
2022-08-22T15:23:18.133Z,99851.53
2022-08-22T15:25:56.486Z,99868.09
2022-08-22T15:28:24.894Z,99866.63
2022-08-22T15:31:03.592Z,99874.84
2022-08-22T15:33:39.262Z,99865.91
2022-08-22T15:36:31.114Z,99870.94
2022-08-22T15:39:47.053Z,99868.25
2022-08-22T15:42:26.363Z,99870.59
2022-08-22T15:44:55.281Z,99865.94
2022-08-22T15:47:36.254Z,99877.00
2022-08-22T15:50:14.710Z,99885.78
2022-08-22T15:53:10.525Z,99877.59
2022-08-22T15:55:38.177Z,99877.34
2022-08-22T15:58:09.229Z,99881.97
2022-08-22T16:00:45.040Z,99866.56
2022-08-22T16:03:28.756Z,99866.94
2022-08-22T16:06:05.035Z,99858.59
2022-08-22T16:08:51.651Z,99877.22
2022-08-22T16:11:21.812Z,99886.75
2022-08-22T16:14:17.146Z,99878.28
2022-08-22T16:16:45.002Z,99881.56
2022-08-22T16:19:20.276Z,99870.78
2022-08-22T16:21:47.797Z,99878.72
2022-08-22T16:24:14.886Z,99880.78
2022-08-22T16:26:43.719Z,99879.44
2022-08-22T16:29:14.713Z,99878.47
2022-08-22T16:31:44.496Z,99888.72
2022-08-22T16:34:17.476Z,99875.13
2022-08-22T16:37:03.526Z,99902.03
2022-08-22T16:39:41.036Z,99901.97
2022-08-22T16:42:23.909Z,99884.44
2022-08-22T16:45:05.339Z,99905.84
2022-08-22T16:47:33.173Z,99900.50
2022-08-22T16:50:18.679Z,99898.59
2022-08-22T16:53:09.387Z,99905.84
2022-08-22T16:55:47.743Z,99907.59
2022-08-22T16:58:50.238Z,99910.97
2022-08-22T17:02:01.259Z,99920.00
2022-08-22T17:04:54.563Z,99913.38
2022-08-22T17:07:40.101Z,99911.28
2022-08-22T17:10:12.355Z,99907.44
2022-08-22T17:12:52.121Z,99917.44
2022-08-22T17:15:35.358Z,99917.66
2022-08-22T17:18:35.304Z,99920.63
2022-08-22T17:21:13.768Z,99921.06
2022-08-22T17:23:53.278Z,99923.75
2022-08-22T17:26:28.946Z,99927.41
2022-08-22T17:29:02.428Z,99934.63
2022-08-22T17:31:32.950Z,99932.13
2022-08-22T17:34:19.102Z,99931.50
2022-08-22T17:36:46.128Z,99924.50
2022-08-22T17:39:16.302Z,99932.91
2022-08-22T17:42:19.015Z,99936.44
2022-08-22T17:45:12.869Z,99936.19
2022-08-22T17:47:49.485Z,99923.50
2022-08-22T17:50:16.584Z,99930.81
2022-08-22T17:52:53.156Z,99925.66
2022-08-22T17:55:30.547Z,99937.16
2022-08-22T17:58:10.537Z,99936.59
2022-08-22T18:00:47.700Z,99939.66
2022-08-22T18:03:31.712Z,99939.03
2022-08-22T18:06:05.101Z,99942.88
2022-08-22T18:11:50.167Z,99945.97
2022-08-22T18:14:45.057Z,99932.84
2022-08-22T18:17:20.352Z,99932.19
2022-08-22T18:20:33.437Z,99932.19
2022-08-22T18:23:39.028Z,99944.56
2022-08-22T18:26:24.138Z,99941.66
2022-08-22T18:28:57.469Z,99945.53
2022-08-22T18:31:38.291Z,99943.59
2022-08-22T18:34:30.656Z,99947.88
2022-08-22T18:37:15.455Z,99942.53
2022-08-22T18:39:52.052Z,99942.72
2022-08-22T18:42:49.440Z,99945.31
2022-08-22T18:45:48.551Z,99917.03
2022-08-22T18:48:30.663Z,99947.44
2022-08-22T18:51:26.889Z,99944.00
2022-08-22T18:54:17.150Z,99942.38
2022-08-22T18:56:58.348Z,99941.63
2022-08-22T18:59:48.718Z,99940.00
2022-08-22T19:02:51.150Z,99929.88
2022-08-22T19:05:39.867Z,99947.56
2022-08-22T19:08:42.470Z,99943.00
2022-08-22T19:11:45.436Z,99944.41
2022-08-22T19:14:41.002Z,99942.59
2022-08-22T19:17:36.682Z,99941.81
2022-08-22T19:20:51.836Z,99940.31
2022-08-22T19:23:34.452Z,99946.75
2022-08-22T19:26:23.356Z,99947.47
2022-08-22T19:29:11.789Z,99939.75
2022-08-22T19:31:41.267Z,99951.13
2022-08-22T19:34:29.703Z,99954.56
2022-08-22T19:37:30.740Z,99954.56
2022-08-22T19:40:11.720Z,99947.88
2022-08-22T19:42:44.256Z,99939.75
2022-08-22T19:45:26.715Z,99947.56
2022-08-22T19:48:13.218Z,99939.75
2022-08-22T19:50:43.348Z,99941.38
2022-08-22T19:53:22.707Z,99945.13
2022-08-22T19:55:55.861Z,99940.72
2022-08-22T19:58:51.966Z,99939.94
2022-08-22T20:01:48.932Z,99947.88
2022-08-22T20:04:55.221Z,99951.94
2022-08-22T20:08:05.521Z,99952.91
2022-08-22T20:10:59.754Z,99937.22
2022-08-22T20:13:31.452Z,99947.28
2022-08-22T20:16:16.209Z,99954.22
2022-08-22T20:19:08.725Z,99929.09
2022-08-22T20:21:40.597Z,99948.34
2022-08-22T20:24:12.395Z,99951.28
2022-08-22T20:26:57.573Z,99951.75
2022-08-22T20:29:33.437Z,99977.44
2022-08-22T20:32:04.364Z,99974.75
2022-08-22T20:34:36.941Z,99965.16
2022-08-22T20:37:31.978Z,99973.97
2022-08-22T20:40:55.403Z,99984.81
2022-08-22T20:43:47.555Z,99959.69
2022-08-22T20:46:34.028Z,99964.22
2022-08-22T20:49:02.834Z,99964.91
2022-08-22T20:51:33.858Z,99958.28
2022-08-22T20:54:17.467Z,99958.97
2022-08-22T20:56:55.637Z,99960.09
2022-08-22T20:59:27.977Z,99944.13
2022-08-22T21:02:20.844Z,99958.28
2022-08-22T21:05:04.546Z,99983.25
2022-08-22T21:07:32.560Z,99989.38
2022-08-22T21:10:25.633Z,99982.78
2022-08-22T21:13:18.020Z,99991.75
2022-08-22T21:16:15.989Z,100002.69
2022-08-22T21:18:49.097Z,99997.97
2022-08-22T21:21:26.016Z,100007.91
2022-08-22T21:23:59.907Z,100012.59
2022-08-22T21:26:32.945Z,100014.88
2022-08-22T21:29:06.211Z,100008.41
2022-08-22T21:31:51.591Z,100005.41
2022-08-22T21:34:30.039Z,100014.69
2022-08-22T21:37:02.598Z,100013.56
2022-08-22T21:39:37.849Z,100025.31
2022-08-22T21:42:22.050Z,100015.31
2022-08-22T21:45:00.286Z,100022.22
2022-08-22T21:47:30.124Z,100026.03
2022-08-22T21:50:38.241Z,100029.91
2022-08-22T21:53:12.102Z,100024.28
2022-08-22T21:55:46.310Z,100018.78
2022-08-22T21:58:35.035Z,100038.00
2022-08-22T22:01:28.646Z,100046.19
2022-08-22T22:03:57.850Z,100037.63
2022-08-22T22:06:26.113Z,100036.94
2022-08-22T22:08:53.279Z,100031.84
2022-08-22T22:11:20.482Z,100043.16
2022-08-22T22:13:47.953Z,100041.94
2022-08-22T22:16:21.463Z,100052.63
2022-08-22T22:18:48.518Z,100054.75
2022-08-22T22:21:17.290Z,100055.25
2022-08-22T22:23:45.277Z,100054.38
2022-08-22T22:26:14.645Z,100056.38
2022-08-22T22:28:47.721Z,100050.31
2022-08-22T22:31:16.634Z,100050.66
2022-08-22T22:33:44.892Z,100050.03
2022-08-22T22:36:38.731Z,100064.34
2022-08-22T22:39:07.088Z,100052.31
2022-08-22T22:41:35.602Z,100059.31
2022-08-22T22:44:04.820Z,100049.19
2022-08-22T22:46:32.055Z,100046.75
2022-08-22T22:48:59.530Z,100051.53
2022-08-22T22:51:26.861Z,100049.16
2022-08-22T22:53:57.604Z,100052.94
2022-08-22T22:56:25.286Z,100056.22
2022-08-22T22:58:59.254Z,100055.50
2022-08-22T23:02:07.671Z,100063.63
2022-08-22T23:04:38.956Z,100064.94
2022-08-22T23:07:07.348Z,100065.06
2022-08-22T23:09:38.809Z,100078.41
2022-08-22T23:12:12.781Z,100066.09
2022-08-22T23:14:40.965Z,100056.44
2022-08-22T23:17:08.434Z,100052.22
2022-08-22T23:19:36.338Z,100057.63
2022-08-22T23:22:03.659Z,100055.97
2022-08-22T23:24:33.041Z,100063.91
2022-08-22T23:27:01.804Z,100066.69
2022-08-22T23:29:29.358Z,100047.78
2022-08-22T23:31:59.870Z,100067.81
2022-08-22T23:34:39.299Z,100068.81
2022-08-22T23:37:09.609Z,100055.84
2022-08-22T23:39:38.563Z,100049.16
2022-08-22T23:42:08.207Z,100057.09
2022-08-22T23:44:37.725Z,100074.59
2022-08-22T23:47:06.710Z,100071.25
2022-08-22T23:49:36.591Z,100074.88
2022-08-22T23:52:06.203Z,100069.03
2022-08-22T23:54:34.963Z,100076.97
2022-08-22T23:57:11.864Z,100079.81
2022-08-22T23:59:46.513Z,100071.19
